sensor_id;sensor_type;location;lat;lon;timestamp;pressure;altitude;pressure_sealevel;temperature;humidity
18678;BME280;9469;51.114;13.914;2023-06-14T00:01:32;98762.41;;;14.09;93.59
18678;BME280;9469;51.114;13.914;2023-06-14T00:06:40;98763.41;;;13.96;94.30
18678;BME280;9469;51.114;13.914;2023-06-14T00:11:47;98771.34;;;13.66;95.52
18678;BME280;9469;51.114;13.914;2023-06-14T00:16:52;98762.53;;;13.75;95.56
18678;BME280;9469;51.114;13.914;2023-06-14T00:22:04;98761.00;;;13.56;96.71
18678;BME280;9469;51.114;13.914;2023-06-14T00:27:09;98764.63;;;13.52;97.49
18678;BME280;9469;51.114;13.914;2023-06-14T00:32:14;98756.19;;;13.24;98.54
18678;BME280;9469;51.114;13.914;2023-06-14T00:37:22;98752.41;;;13.17;99.82
18678;BME280;9469;51.114;13.914;2023-06-14T00:42:28;98748.31;;;13.19;100.00
18678;BME280;9469;51.114;13.914;2023-06-14T00:47:33;98754.00;;;13.09;100.00
18678;BME280;9469;51.114;13.914;2023-06-14T00:52:42;98754.59;;;12.98;100.00
18678;BME280;9469;51.114;13.914;2023-06-14T00:57:50;98750.66;;;12.86;100.00
18678;BME280;9469;51.114;13.914;2023-06-14T01:02:56;98742.47;;;12.83;100.00
18678;BME280;9469;51.114;13.914;2023-06-14T01:08:14;98740.28;;;12.85;100.00
18678;BME280;9469;51.114;13.914;2023-06-14T01:13:28;98738.41;;;12.85;100.00
18678;BME280;9469;51.114;13.914;2023-06-14T01:18:34;98745.47;;;12.81;100.00
18678;BME280;9469;51.114;13.914;2023-06-14T01:23:42;98737.47;;;12.73;100.00
18678;BME280;9469;51.114;13.914;2023-06-14T01:28:48;98728.47;;;12.60;100.00
18678;BME280;9469;51.114;13.914;2023-06-14T01:33:57;98721.66;;;12.29;100.00
18678;BME280;9469;51.114;13.914;2023-06-14T01:39:05;98728.63;;;12.47;100.00
18678;BME280;9469;51.114;13.914;2023-06-14T01:44:12;98740.72;;;12.53;100.00
18678;BME280;9469;51.114;13.914;2023-06-14T01:49:18;98736.56;;;12.21;100.00
18678;BME280;9469;51.114;13.914;2023-06-14T01:54:27;98722.13;;;12.22;100.00
18678;BME280;9469;51.114;13.914;2023-06-14T01:59:33;98731.06;;;12.17;100.00
18678;BME280;9469;51.114;13.914;2023-06-14T02:04:38;98736.97;;;12.06;100.00
18678;BME280;9469;51.114;13.914;2023-06-14T02:09:46;98741.03;;;12.03;100.00
18678;BME280;9469;51.114;13.914;2023-06-14T02:14:51;98728.25;;;11.83;100.00
18678;BME280;9469;51.114;13.914;2023-06-14T02:19:57;98737.69;;;11.36;100.00
18678;BME280;9469;51.114;13.914;2023-06-14T02:25:06;98743.94;;;11.32;100.00
18678;BME280;9469;51.114;13.914;2023-06-14T02:30:14;98746.09;;;11.74;100.00
18678;BME280;9469;51.114;13.914;2023-06-14T02:35:20;98742.91;;;11.41;100.00
18678;BME280;9469;51.114;13.914;2023-06-14T02:40:32;98749.56;;;11.52;100.00
18678;BME280;9469;51.114;13.914;2023-06-14T02:45:38;98751.78;;;11.59;100.00
18678;BME280;9469;51.114;13.914;2023-06-14T02:50:43;98752.38;;;11.78;100.00
18678;BME280;9469;51.114;13.914;2023-06-14T02:55:51;98762.66;;;11.93;100.00
18678;BME280;9469;51.114;13.914;2023-06-14T03:00:57;98763.94;;;11.74;100.00
18678;BME280;9469;51.114;13.914;2023-06-14T03:06:06;98768.38;;;11.56;100.00
18678;BME280;9469;51.114;13.914;2023-06-14T03:11:21;98769.72;;;11.23;100.00
18678;BME280;9469;51.114;13.914;2023-06-14T03:16:26;98772.97;;;11.64;100.00
18678;BME280;9469;51.114;13.914;2023-06-14T03:21:34;98777.28;;;11.51;100.00
18678;BME280;9469;51.114;13.914;2023-06-14T03:26:43;98773.53;;;11.52;100.00
18678;BME280;9469;51.114;13.914;2023-06-14T03:31:59;98774.69;;;11.38;100.00
18678;BME280;9469;51.114;13.914;2023-06-14T03:37:11;98780.63;;;11.57;100.00
18678;BME280;9469;51.114;13.914;2023-06-14T03:42:19;98780.97;;;11.64;100.00
18678;BME280;9469;51.114;13.914;2023-06-14T03:47:25;98791.50;;;11.69;100.00
18678;BME280;9469;51.114;13.914;2023-06-14T03:52:33;98798.25;;;11.97;100.00
18678;BME280;9469;51.114;13.914;2023-06-14T03:57:41;98806.41;;;12.32;100.00
18678;BME280;9469;51.114;13.914;2023-06-14T04:02:50;98806.72;;;12.30;100.00
18678;BME280;9469;51.114;13.914;2023-06-14T04:07:56;98811.13;;;11.95;100.00
18678;BME280;9469;51.114;13.914;2023-06-14T04:13:10;98811.53;;;12.19;100.00
18678;BME280;9469;51.114;13.914;2023-06-14T04:18:16;98807.84;;;11.98;100.00
18678;BME280;9469;51.114;13.914;2023-06-14T04:23:25;98816.44;;;11.95;100.00
18678;BME280;9469;51.114;13.914;2023-06-14T04:28:33;98821.41;;;12.58;100.00
18678;BME280;9469;51.114;13.914;2023-06-14T04:33:45;98829.59;;;12.62;100.00
18678;BME280;9469;51.114;13.914;2023-06-14T04:38:55;98825.59;;;13.07;100.00
18678;BME280;9469;51.114;13.914;2023-06-14T04:44:05;98833.16;;;13.14;100.00
18678;BME280;9469;51.114;13.914;2023-06-14T04:49:16;98835.31;;;13.80;100.00
18678;BME280;9469;51.114;13.914;2023-06-14T04:54:22;98840.72;;;13.54;100.00
18678;BME280;9469;51.114;13.914;2023-06-14T04:59:30;98849.97;;;13.65;100.00
18678;BME280;9469;51.114;13.914;2023-06-14T05:04:41;98856.69;;;13.89;99.38
18678;BME280;9469;51.114;13.914;2023-06-14T05:09:46;98859.66;;;14.13;97.99
18678;BME280;9469;51.114;13.914;2023-06-14T05:14:57;98857.69;;;14.39;97.33
18678;BME280;9469;51.114;13.914;2023-06-14T05:20:05;98858.31;;;14.74;95.61
18678;BME280;9469;51.114;13.914;2023-06-14T05:25:14;98856.63;;;14.69;95.60
18678;BME280;9469;51.114;13.914;2023-06-14T05:30:22;98864.59;;;15.07;93.50
18678;BME280;9469;51.114;13.914;2023-06-14T05:35:30;98863.13;;;15.92;90.34
18678;BME280;9469;51.114;13.914;2023-06-14T05:40:35;98849.53;;;16.09;87.57
18678;BME280;9469;51.114;13.914;2023-06-14T05:45:44;98854.16;;;16.21;86.73
18678;BME280;9469;51.114;13.914;2023-06-14T05:50:50;98846.16;;;17.45;82.00
18678;BME280;9469;51.114;13.914;2023-06-14T05:55:55;98858.91;;;16.72;85.49
18678;BME280;9469;51.114;13.914;2023-06-14T06:01:03;98861.56;;;18.16;80.10
18678;BME280;9469;51.114;13.914;2023-06-14T06:06:08;98867.41;;;17.62;79.30
18678;BME280;9469;51.114;13.914;2023-06-14T06:11:15;98866.81;;;17.17;79.84
18678;BME280;9469;51.114;13.914;2023-06-14T06:16:23;98879.09;;;17.42;80.94
18678;BME280;9469;51.114;13.914;2023-06-14T06:21:28;98879.94;;;17.70;78.03
18678;BME280;9469;51.114;13.914;2023-06-14T06:26:34;98891.56;;;17.74;77.82
18678;BME280;9469;51.114;13.914;2023-06-14T06:31:44;98893.81;;;18.90;74.40
18678;BME280;9469;51.114;13.914;2023-06-14T06:36:51;98884.22;;;18.15;73.07
18678;BME280;9469;51.114;13.914;2023-06-14T06:41:59;98880.88;;;20.07;68.53
18678;BME280;9469;51.114;13.914;2023-06-14T06:47:20;98892.84;;;19.49;71.51
18678;BME280;9469;51.114;13.914;2023-06-14T06:52:26;98888.28;;;18.52;72.59
18678;BME280;9469;51.114;13.914;2023-06-14T06:57:31;98895.75;;;18.74;72.85
18678;BME280;9469;51.114;13.914;2023-06-14T07:02:39;98900.41;;;18.77;71.35
18678;BME280;9469;51.114;13.914;2023-06-14T07:07:44;98891.56;;;18.92;70.87
18678;BME280;9469;51.114;13.914;2023-06-14T07:12:51;98900.06;;;19.64;68.27
18678;BME280;9469;51.114;13.914;2023-06-14T07:18:01;98890.69;;;19.96;67.24
18678;BME280;9469;51.114;13.914;2023-06-14T07:23:09;98903.50;;;19.26;69.33
18678;BME280;9469;51.114;13.914;2023-06-14T07:28:14;98905.69;;;18.42;68.70
18678;BME280;9469;51.114;13.914;2023-06-14T07:33:22;98905.47;;;18.63;69.14
18678;BME280;9469;51.114;13.914;2023-06-14T07:38:28;98902.84;;;19.32;67.86
18678;BME280;9469;51.114;13.914;2023-06-14T07:43:33;98921.41;;;18.84;67.06
18678;BME280;9469;51.114;13.914;2023-06-14T07:48:45;98910.72;;;19.38;64.12
18678;BME280;9469;51.114;13.914;2023-06-14T07:53:56;98918.44;;;20.16;64.47
18678;BME280;9469;51.114;13.914;2023-06-14T07:59:05;98909.13;;;19.37;65.81
18678;BME280;9469;51.114;13.914;2023-06-14T08:04:13;98903.63;;;20.25;63.43
18678;BME280;9469;51.114;13.914;2023-06-14T08:09:21;98918.19;;;19.28;64.78
18678;BME280;9469;51.114;13.914;2023-06-14T08:14:27;98925.84;;;19.26;66.04
18678;BME280;9469;51.114;13.914;2023-06-14T08:19:36;98923.16;;;19.26;67.45
18678;BME280;9469;51.114;13.914;2023-06-14T08:24:43;98938.31;;;19.15;66.84
18678;BME280;9469;51.114;13.914;2023-06-14T08:29:50;98944.09;;;20.06;65.44
18678;BME280;9469;51.114;13.914;2023-06-14T08:34:58;98937.13;;;20.89;63.45
18678;BME280;9469;51.114;13.914;2023-06-14T08:40:17;98936.84;;;19.53;64.97
18678;BME280;9469;51.114;13.914;2023-06-14T08:45:24;98921.25;;;20.00;63.99
18678;BME280;9469;51.114;13.914;2023-06-14T08:50:39;98925.19;;;20.44;64.14
18678;BME280;9469;51.114;13.914;2023-06-14T08:55:47;98927.94;;;20.25;64.45
18678;BME280;9469;51.114;13.914;2023-06-14T09:00:58;98924.09;;;20.07;63.29
18678;BME280;9469;51.114;13.914;2023-06-14T09:06:09;98928.97;;;20.01;64.55
18678;BME280;9469;51.114;13.914;2023-06-14T09:11:18;98930.34;;;19.73;65.42
18678;BME280;9469;51.114;13.914;2023-06-14T09:16:25;98934.72;;;19.62;64.32
18678;BME280;9469;51.114;13.914;2023-06-14T09:21:37;98933.84;;;19.23;64.46
18678;BME280;9469;51.114;13.914;2023-06-14T09:26:47;98927.53;;;20.46;63.07
18678;BME280;9469;51.114;13.914;2023-06-14T09:31:52;98931.69;;;20.62;62.76
18678;BME280;9469;51.114;13.914;2023-06-14T09:37:02;98917.25;;;20.13;64.19
18678;BME280;9469;51.114;13.914;2023-06-14T09:42:16;98925.28;;;19.90;64.31
18678;BME280;9469;51.114;13.914;2023-06-14T09:47:28;98922.84;;;21.37;62.81
18678;BME280;9469;51.114;13.914;2023-06-14T09:52:36;98924.88;;;20.49;63.07
18678;BME280;9469;51.114;13.914;2023-06-14T09:57:45;98906.34;;;20.97;63.05
18678;BME280;9469;51.114;13.914;2023-06-14T10:03:00;98918.25;;;20.92;62.32
18678;BME280;9469;51.114;13.914;2023-06-14T10:08:12;98905.22;;;21.50;61.81
18678;BME280;9469;51.114;13.914;2023-06-14T10:13:19;98915.22;;;21.20;61.84
18678;BME280;9469;51.114;13.914;2023-06-14T10:18:33;98905.66;;;21.56;62.09
18678;BME280;9469;51.114;13.914;2023-06-14T10:23:44;98914.78;;;21.44;63.69
18678;BME280;9469;51.114;13.914;2023-06-14T10:28:58;98910.94;;;20.93;63.87
18678;BME280;9469;51.114;13.914;2023-06-14T10:34:05;98907.28;;;20.36;65.35
18678;BME280;9469;51.114;13.914;2023-06-14T10:39:15;98901.13;;;20.17;66.96
18678;BME280;9469;51.114;13.914;2023-06-14T10:44:41;98906.75;;;20.27;67.62
18678;BME280;9469;51.114;13.914;2023-06-14T10:49:51;98902.72;;;20.63;68.35
18678;BME280;9469;51.114;13.914;2023-06-14T10:55:06;98898.25;;;20.29;69.07
18678;BME280;9469;51.114;13.914;2023-06-14T11:00:14;98903.63;;;20.25;68.82
18678;BME280;9469;51.114;13.914;2023-06-14T11:05:26;98902.31;;;20.38;67.45
18678;BME280;9469;51.114;13.914;2023-06-14T11:10:37;98912.44;;;20.03;69.30
18678;BME280;9469;51.114;13.914;2023-06-14T11:15:45;98894.47;;;20.79;67.94
18678;BME280;9469;51.114;13.914;2023-06-14T11:20:51;98894.69;;;20.44;69.11
18678;BME280;9469;51.114;13.914;2023-06-14T11:26:02;98894.31;;;20.68;68.47
18678;BME280;9469;51.114;13.914;2023-06-14T11:31:09;98889.81;;;20.76;69.44
18678;BME280;9469;51.114;13.914;2023-06-14T11:36:16;98891.59;;;21.17;69.84
18678;BME280;9469;51.114;13.914;2023-06-14T11:41:32;98903.63;;;19.87;71.54
18678;BME280;9469;51.114;13.914;2023-06-14T11:46:38;98900.50;;;20.23;72.28
18678;BME280;9469;51.114;13.914;2023-06-14T11:51:44;98899.31;;;20.66;71.58
18678;BME280;9469;51.114;13.914;2023-06-14T11:56:52;98896.44;;;20.33;71.44
18678;BME280;9469;51.114;13.914;2023-06-14T12:01:58;98885.13;;;21.51;68.89
18678;BME280;9469;51.114;13.914;2023-06-14T12:07:10;98891.25;;;20.47;70.02
18678;BME280;9469;51.114;13.914;2023-06-14T12:12:20;98875.88;;;20.73;70.92
18678;BME280;9469;51.114;13.914;2023-06-14T12:17:34;98887.13;;;20.11;73.43
18678;BME280;9469;51.114;13.914;2023-06-14T12:22:50;98888.47;;;20.40;73.55
18678;BME280;9469;51.114;13.914;2023-06-14T12:28:04;98893.50;;;21.13;71.63
18678;BME280;9469;51.114;13.914;2023-06-14T12:33:10;98881.81;;;21.65;68.95
18678;BME280;9469;51.114;13.914;2023-06-14T12:38:15;98894.41;;;21.24;69.13
18678;BME280;9469;51.114;13.914;2023-06-14T12:43:24;98877.94;;;21.32;69.14
18678;BME280;9469;51.114;13.914;2023-06-14T12:48:30;98885.53;;;20.74;70.73
18678;BME280;9469;51.114;13.914;2023-06-14T12:53:36;98878.81;;;20.65;72.18
18678;BME280;9469;51.114;13.914;2023-06-14T12:58:48;98878.28;;;20.33;73.16
18678;BME280;9469;51.114;13.914;2023-06-14T13:03:53;98868.84;;;21.18;69.29
18678;BME280;9469;51.114;13.914;2023-06-14T13:09:00;98870.53;;;22.69;65.41
18678;BME280;9469;51.114;13.914;2023-06-14T13:14:10;98859.81;;;21.99;66.19
18678;BME280;9469;51.114;13.914;2023-06-14T13:19:27;98843.94;;;23.61;63.14
18678;BME280;9469;51.114;13.914;2023-06-14T13:24:34;98857.66;;;22.19;65.48
18678;BME280;9469;51.114;13.914;2023-06-14T13:29:42;98851.41;;;23.06;63.97
18678;BME280;9469;51.114;13.914;2023-06-14T13:34:47;98840.84;;;21.99;66.72
18678;BME280;9469;51.114;13.914;2023-06-14T13:39:53;98850.91;;;21.69;66.14
18678;BME280;9469;51.114;13.914;2023-06-14T13:45:01;98848.34;;;22.13;65.40
18678;BME280;9469;51.114;13.914;2023-06-14T13:50:08;98844.09;;;22.16;64.07
18678;BME280;9469;51.114;13.914;2023-06-14T13:55:15;98833.34;;;22.70;63.44
18678;BME280;9469;51.114;13.914;2023-06-14T14:00:22;98833.34;;;21.86;62.48
18678;BME280;9469;51.114;13.914;2023-06-14T14:05:28;98851.03;;;21.17;65.24
18678;BME280;9469;51.114;13.914;2023-06-14T14:10:33;98845.13;;;22.92;62.26
18678;BME280;9469;51.114;13.914;2023-06-14T14:15:41;98844.78;;;22.49;61.64
18678;BME280;9469;51.114;13.914;2023-06-14T14:20:47;98835.13;;;23.06;62.16
18678;BME280;9469;51.114;13.914;2023-06-14T14:25:53;98838.34;;;23.29;61.25
18678;BME280;9469;51.114;13.914;2023-06-14T14:31:01;98844.56;;;21.55;60.12
18678;BME280;9469;51.114;13.914;2023-06-14T14:36:07;98840.06;;;20.80;61.07
18678;BME280;9469;51.114;13.914;2023-06-14T14:41:13;98828.56;;;21.13;60.50
18678;BME280;9469;51.114;13.914;2023-06-14T14:46:21;98831.44;;;22.30;60.28
18678;BME280;9469;51.114;13.914;2023-06-14T14:51:28;98837.13;;;21.81;62.33
18678;BME280;9469;51.114;13.914;2023-06-14T14:56:48;98832.91;;;20.95;64.25
18678;BME280;9469;51.114;13.914;2023-06-14T15:02:00;98824.88;;;20.98;62.98
18678;BME280;9469;51.114;13.914;2023-06-14T15:07:10;98826.91;;;21.64;59.65
18678;BME280;9469;51.114;13.914;2023-06-14T15:12:17;98831.88;;;21.29;61.41
18678;BME280;9469;51.114;13.914;2023-06-14T15:17:26;98824.25;;;21.38;60.95
18678;BME280;9469;51.114;13.914;2023-06-14T15:22:31;98826.03;;;21.57;60.31
18678;BME280;9469;51.114;13.914;2023-06-14T15:27:39;98815.38;;;21.71;57.50
18678;BME280;9469;51.114;13.914;2023-06-14T15:32:47;98814.25;;;21.42;55.81
18678;BME280;9469;51.114;13.914;2023-06-14T15:37:52;98810.31;;;21.36;55.78
18678;BME280;9469;51.114;13.914;2023-06-14T15:42:58;98819.19;;;21.66;57.93
18678;BME280;9469;51.114;13.914;2023-06-14T15:48:05;98822.31;;;21.05;59.81
18678;BME280;9469;51.114;13.914;2023-06-14T15:53:11;98822.34;;;21.09;61.68
18678;BME280;9469;51.114;13.914;2023-06-14T15:58:19;98811.03;;;21.99;59.69
18678;BME280;9469;51.114;13.914;2023-06-14T16:03:30;98822.13;;;21.87;59.24
18678;BME280;9469;51.114;13.914;2023-06-14T16:08:35;98814.63;;;22.07;58.41
18678;BME280;9469;51.114;13.914;2023-06-14T16:13:42;98819.47;;;21.91;57.35
18678;BME280;9469;51.114;13.914;2023-06-14T16:18:50;98820.50;;;21.83;58.19
18678;BME280;9469;51.114;13.914;2023-06-14T16:23:55;98810.53;;;21.24;57.51
18678;BME280;9469;51.114;13.914;2023-06-14T16:29:00;98806.50;;;21.07;59.34
18678;BME280;9469;51.114;13.914;2023-06-14T16:34:08;98808.75;;;22.05;57.51
18678;BME280;9469;51.114;13.914;2023-06-14T16:39:14;98808.81;;;22.08;57.66
18678;BME280;9469;51.114;13.914;2023-06-14T16:44:19;98806.56;;;22.61;57.35
18678;BME280;9469;51.114;13.914;2023-06-14T16:49:27;98814.28;;;22.16;57.45
18678;BME280;9469;51.114;13.914;2023-06-14T16:54:32;98820.00;;;21.70;58.12
18678;BME280;9469;51.114;13.914;2023-06-14T16:59:38;98816.59;;;21.77;59.03
18678;BME280;9469;51.114;13.914;2023-06-14T17:04:47;98825.69;;;21.91;58.39
18678;BME280;9469;51.114;13.914;2023-06-14T17:09:54;98822.78;;;22.14;57.41
18678;BME280;9469;51.114;13.914;2023-06-14T17:15:04;98828.09;;;22.03;58.06
18678;BME280;9469;51.114;13.914;2023-06-14T17:20:12;98830.41;;;22.01;58.11
18678;BME280;9469;51.114;13.914;2023-06-14T17:25:18;98830.78;;;21.67;59.51
18678;BME280;9469;51.114;13.914;2023-06-14T17:30:26;98845.53;;;21.39;61.31
18678;BME280;9469;51.114;13.914;2023-06-14T17:35:34;98840.88;;;21.36;62.00
18678;BME280;9469;51.114;13.914;2023-06-14T17:40:39;98856.25;;;21.03;63.86
18678;BME280;9469;51.114;13.914;2023-06-14T17:45:54;98853.16;;;20.78;65.05
18678;BME280;9469;51.114;13.914;2023-06-14T17:51:02;98852.69;;;20.72;66.16
18678;BME280;9469;51.114;13.914;2023-06-14T17:56:07;98851.03;;;20.64;66.73
18678;BME280;9469;51.114;13.914;2023-06-14T18:01:14;98857.59;;;20.67;67.21
18678;BME280;9469;51.114;13.914;2023-06-14T18:06:24;98855.75;;;20.71;67.52
18678;BME280;9469;51.114;13.914;2023-06-14T18:11:30;98859.56;;;20.66;67.10
18678;BME280;9469;51.114;13.914;2023-06-14T18:16:35;98862.31;;;20.47;66.89
18678;BME280;9469;51.114;13.914;2023-06-14T18:21:46;98870.13;;;20.52;67.01
18678;BME280;9469;51.114;13.914;2023-06-14T18:26:52;98865.09;;;20.28;67.47
18678;BME280;9469;51.114;13.914;2023-06-14T18:31:57;98868.09;;;20.23;67.75
18678;BME280;9469;51.114;13.914;2023-06-14T18:37:05;98873.50;;;20.23;67.63
18678;BME280;9469;51.114;13.914;2023-06-14T18:42:11;98880.81;;;20.23;68.30
18678;BME280;9469;51.114;13.914;2023-06-14T18:47:16;98877.75;;;20.05;68.55
18678;BME280;9469;51.114;13.914;2023-06-14T18:52:24;98877.09;;;20.12;69.13
18678;BME280;9469;51.114;13.914;2023-06-14T18:57:29;98878.19;;;20.07;69.27
18678;BME280;9469;51.114;13.914;2023-06-14T19:02:34;98872.94;;;19.95;69.97
18678;BME280;9469;51.114;13.914;2023-06-14T19:07:43;98875.25;;;19.74;70.97
18678;BME280;9469;51.114;13.914;2023-06-14T19:12:48;98891.06;;;19.75;71.79
18678;BME280;9469;51.114;13.914;2023-06-14T19:17:55;98894.03;;;19.70;72.05
18678;BME280;9469;51.114;13.914;2023-06-14T19:23:03;98890.78;;;19.61;72.43
18678;BME280;9469;51.114;13.914;2023-06-14T19:28:09;98894.31;;;19.46;73.71
18678;BME280;9469;51.114;13.914;2023-06-14T19:33:15;98895.41;;;19.26;75.01
18678;BME280;9469;51.114;13.914;2023-06-14T19:38:23;98909.91;;;18.87;77.51
18678;BME280;9469;51.114;13.914;2023-06-14T19:43:29;98906.09;;;18.88;78.15
18678;BME280;9469;51.114;13.914;2023-06-14T19:48:34;98910.94;;;18.67;78.35
18678;BME280;9469;51.114;13.914;2023-06-14T19:53:43;98905.56;;;18.51;79.18
18678;BME280;9469;51.114;13.914;2023-06-14T19:58:48;98919.38;;;18.65;77.88
18678;BME280;9469;51.114;13.914;2023-06-14T20:03:54;98930.34;;;18.72;78.56
18678;BME280;9469;51.114;13.914;2023-06-14T20:09:02;98933.53;;;18.62;80.16
18678;BME280;9469;51.114;13.914;2023-06-14T20:14:14;98922.88;;;18.66;78.23
18678;BME280;9469;51.114;13.914;2023-06-14T20:19:20;98932.25;;;18.87;78.65
18678;BME280;9469;51.114;13.914;2023-06-14T20:24:28;98933.75;;;18.41;79.14
18678;BME280;9469;51.114;13.914;2023-06-14T20:29:33;98928.84;;;18.16;81.88
18678;BME280;9469;51.114;13.914;2023-06-14T20:34:40;98936.00;;;18.24;82.76
18678;BME280;9469;51.114;13.914;2023-06-14T20:39:50;98926.22;;;18.04;83.68
18678;BME280;9469;51.114;13.914;2023-06-14T20:44:55;98933.94;;;17.77;86.06
18678;BME280;9469;51.114;13.914;2023-06-14T20:50:00;98932.56;;;17.83;86.33
18678;BME280;9469;51.114;13.914;2023-06-14T20:55:11;98936.47;;;17.58;88.46
18678;BME280;9469;51.114;13.914;2023-06-14T21:00:17;98934.44;;;17.43;89.45
18678;BME280;9469;51.114;13.914;2023-06-14T21:05:23;98934.38;;;17.28;91.13
18678;BME280;9469;51.114;13.914;2023-06-14T21:10:34;98931.06;;;17.58;85.80
18678;BME280;9469;51.114;13.914;2023-06-14T21:15:39;98927.94;;;17.56;85.93
18678;BME280;9469;51.114;13.914;2023-06-14T21:20:44;98930.09;;;16.78;90.39
18678;BME280;9469;51.114;13.914;2023-06-14T21:25:54;98940.97;;;17.06;90.30
18678;BME280;9469;51.114;13.914;2023-06-14T21:30:59;98934.66;;;17.50;87.20
18678;BME280;9469;51.114;13.914;2023-06-14T21:36:05;98933.19;;;17.65;86.27
18678;BME280;9469;51.114;13.914;2023-06-14T21:41:13;98943.88;;;17.01;88.82
18678;BME280;9469;51.114;13.914;2023-06-14T21:46:18;98942.00;;;16.44;93.81
18678;BME280;9469;51.114;13.914;2023-06-14T21:51:23;98933.34;;;16.60;94.03
18678;BME280;9469;51.114;13.914;2023-06-14T21:56:31;98937.06;;;16.79;92.24
18678;BME280;9469;51.114;13.914;2023-06-14T22:01:37;98929.97;;;16.51;92.85
18678;BME280;9469;51.114;13.914;2023-06-14T22:06:42;98928.50;;;16.20;94.77
18678;BME280;9469;51.114;13.914;2023-06-14T22:11:51;98939.56;;;15.86;97.59
18678;BME280;9469;51.114;13.914;2023-06-14T22:16:57;98941.84;;;15.55;99.00
18678;BME280;9469;51.114;13.914;2023-06-14T22:22:05;98934.53;;;15.64;98.73
18678;BME280;9469;51.114;13.914;2023-06-14T22:27:13;98940.50;;;15.49;99.41
18678;BME280;9469;51.114;13.914;2023-06-14T22:32:22;98944.53;;;15.26;100.00
18678;BME280;9469;51.114;13.914;2023-06-14T22:37:29;98950.69;;;15.26;100.00
18678;BME280;9469;51.114;13.914;2023-06-14T22:42:46;98944.16;;;15.15;100.00
18678;BME280;9469;51.114;13.914;2023-06-14T22:47:56;98944.53;;;15.26;99.92
18678;BME280;9469;51.114;13.914;2023-06-14T22:53:02;98943.97;;;15.41;99.27
18678;BME280;9469;51.114;13.914;2023-06-14T22:58:10;98943.69;;;15.34;99.67
18678;BME280;9469;51.114;13.914;2023-06-14T23:03:18;98944.50;;;15.05;100.00
18678;BME280;9469;51.114;13.914;2023-06-14T23:08:25;98937.81;;;15.20;100.00
18678;BME280;9469;51.114;13.914;2023-06-14T23:13:37;98941.69;;;15.01;100.00
18678;BME280;9469;51.114;13.914;2023-06-14T23:18:43;98939.59;;;15.07;100.00
18678;BME280;9469;51.114;13.914;2023-06-14T23:23:51;98948.94;;;15.01;100.00
18678;BME280;9469;51.114;13.914;2023-06-14T23:28:59;98953.41;;;14.42;100.00
18678;BME280;9469;51.114;13.914;2023-06-14T23:34:04;98947.47;;;14.11;100.00
18678;BME280;9469;51.114;13.914;2023-06-14T23:39:11;98945.44;;;14.71;100.00
18678;BME280;9469;51.114;13.914;2023-06-14T23:44:22;98929.38;;;14.71;100.00
18678;BME280;9469;51.114;13.914;2023-06-14T23:49:29;98929.16;;;14.85;100.00
18678;BME280;9469;51.114;13.914;2023-06-14T23:54:34;98934.03;;;14.36;100.00
18678;BME280;9469;51.114;13.914;2023-06-14T23:59:46;98943.84;;;14.15;100.00
